createdAt,value
2023-01-29T00:00:02.558Z,485.27
2023-01-29T00:01:02.546Z,475.54
2023-01-29T00:02:02.737Z,472.16
2023-01-29T00:03:02.588Z,467.84
2023-01-29T00:04:02.519Z,468.17
2023-01-29T00:05:16.722Z,484.92
2023-01-29T00:06:02.501Z,495.40
2023-01-29T00:07:02.543Z,504.81
2023-01-29T00:08:02.468Z,521.05
2023-01-29T00:09:02.459Z,531.89
2023-01-29T00:10:02.456Z,534.46
2023-01-29T00:11:02.441Z,528.09
2023-01-29T00:12:02.434Z,513.00
2023-01-29T00:13:02.418Z,498.38
2023-01-29T00:14:02.422Z,495.03
2023-01-29T00:15:02.441Z,494.67
2023-01-29T00:16:02.406Z,493.93
2023-01-29T00:17:02.418Z,489.20
2023-01-29T00:18:02.367Z,489.92
2023-01-29T00:19:02.383Z,497.26
2023-01-29T00:20:02.468Z,504.43
2023-01-29T00:21:02.365Z,511.42
2023-01-29T00:22:02.359Z,514.99
2023-01-29T00:23:02.355Z,506.35
2023-01-29T00:24:02.366Z,505.20
2023-01-29T00:25:02.330Z,507.90
2023-01-29T00:26:02.295Z,510.63
2023-01-29T00:27:02.373Z,509.85
2023-01-29T00:28:02.298Z,513.79
2023-01-29T00:29:02.316Z,519.42
2023-01-29T00:30:02.320Z,517.80
2023-01-29T00:31:02.375Z,516.99
2023-01-29T00:32:02.342Z,520.23
2023-01-29T00:33:02.257Z,528.51
2023-01-29T00:34:02.232Z,531.47
2023-01-29T00:35:02.235Z,532.32
2023-01-29T00:36:02.200Z,534.89
2023-01-29T00:37:02.231Z,549.49
2023-01-29T00:38:02.196Z,555.46
2023-01-29T00:39:02.166Z,554.07
2023-01-29T00:40:02.201Z,549.49
2023-01-29T00:41:02.176Z,551.77
2023-01-29T00:42:02.188Z,557.80
2023-01-29T00:43:02.146Z,555.93
2023-01-29T00:44:02.152Z,564.91
2023-01-29T00:45:02.184Z,584.80
2023-01-29T00:46:02.117Z,613.99
2023-01-29T00:47:02.105Z,651.95
2023-01-29T00:48:02.107Z,689.86
2023-01-29T00:49:02.102Z,734.07
2023-01-29T00:50:02.103Z,756.97
2023-01-29T00:51:02.068Z,796.88
2023-01-29T00:52:02.064Z,821.49
2023-01-29T00:53:02.047Z,842.30
2023-01-29T00:54:02.040Z,876.73
2023-01-29T00:55:02.038Z,878.47
2023-01-29T00:56:02.063Z,886.08
2023-01-29T00:57:02.051Z,893.22
2023-01-29T00:58:02.021Z,900.47
2023-01-29T00:59:01.997Z,898.04
2023-01-29T01:00:01.999Z,883.13
2023-01-29T01:01:01.986Z,887.85
2023-01-29T01:02:02.006Z,897.43
2023-01-29T01:03:01.966Z,892.02
2023-01-29T01:04:01.953Z,889.04
2023-01-29T01:05:01.944Z,892.62
2023-01-29T01:06:01.942Z,911.58
2023-01-29T01:07:01.935Z,917.24
2023-01-29T01:08:01.939Z,924.90
2023-01-29T01:09:01.935Z,909.09
2023-01-29T01:10:01.919Z,883.13
2023-01-29T01:11:01.906Z,876.73
2023-01-29T01:12:01.863Z,849.30
2023-01-29T01:13:01.889Z,819.97
2023-01-29T01:14:01.847Z,788.38
2023-01-29T01:15:01.843Z,786.05
2023-01-29T01:16:01.874Z,788.85
2023-01-29T01:17:01.816Z,808.02
2023-01-29T01:18:01.829Z,823.02
2023-01-29T01:19:01.820Z,843.37
2023-01-29T01:20:01.806Z,857.51
2023-01-29T01:21:01.791Z,867.58
2023-01-29T01:22:01.794Z,895.62
2023-01-29T01:23:01.809Z,905.38
2023-01-29T01:24:01.781Z,901.08
2023-01-29T01:25:01.746Z,917.24
2023-01-29T01:26:01.745Z,910.96
2023-01-29T01:27:01.730Z,907.85
2023-01-29T01:28:34.599Z,501.76
2023-01-29T01:29:35.166Z,588.95
2023-01-29T01:30:35.164Z,653.23
2023-01-29T01:31:35.201Z,698.57
2023-01-29T01:32:35.258Z,736.51
2023-01-29T01:33:35.145Z,756.11
2023-01-29T01:34:35.167Z,772.36
2023-01-29T01:35:35.205Z,787.91
2023-01-29T01:36:35.107Z,801.20
2023-01-29T01:37:35.082Z,783.27
2023-01-29T01:38:35.153Z,771.46
2023-01-29T01:39:35.068Z,782.81
2023-01-29T01:40:35.121Z,792.14
2023-01-29T01:41:35.179Z,805.08
2023-01-29T01:42:35.050Z,801.20
2023-01-29T01:43:35.046Z,794.50
2023-01-29T01:44:35.099Z,805.57
2023-01-29T01:45:35.036Z,827.63
2023-01-29T01:46:35.026Z,833.85
2023-01-29T01:47:35.140Z,835.95
2023-01-29T01:48:34.999Z,838.59
2023-01-29T01:49:35.056Z,852.56
2023-01-29T01:50:35.071Z,852.02
2023-01-29T01:51:35.060Z,835.43
2023-01-29T01:52:35.011Z,824.04
2023-01-29T01:53:34.932Z,817.96
2023-01-29T01:54:34.928Z,819.97
2023-01-29T01:55:34.961Z,824.55
2023-01-29T01:56:34.985Z,823.02
2023-01-29T01:57:34.911Z,837.00
2023-01-29T01:58:34.938Z,842.84
2023-01-29T01:59:35.004Z,858.06
2023-01-29T02:01:59.521Z,502.90
2023-01-29T02:02:59.963Z,567.81
2023-01-29T02:03:58.930Z,596.35
2023-01-29T02:04:58.897Z,616.27
2023-01-29T02:05:58.903Z,611.16
2023-01-29T02:06:58.898Z,612.29
2023-01-29T02:07:58.868Z,613.99
2023-01-29T02:08:58.852Z,610.04
2023-01-29T02:09:58.875Z,605.59
2023-01-29T02:10:58.841Z,606.15
2023-01-29T02:11:58.850Z,600.12
2023-01-29T02:12:58.858Z,593.16
2023-01-29T02:13:58.812Z,583.26
2023-01-29T02:14:58.808Z,583.26
2023-01-29T02:15:58.797Z,585.32
2023-01-29T02:16:58.817Z,591.04
2023-01-29T02:17:58.780Z,592.63
2023-01-29T02:18:58.758Z,607.81
2023-01-29T02:19:58.792Z,619.14
2023-01-29T02:20:58.741Z,626.73
2023-01-29T02:21:58.731Z,622.04
2023-01-29T02:22:58.744Z,608.36
2023-01-29T02:23:58.758Z,592.63
2023-01-29T02:24:58.757Z,580.71
2023-01-29T02:25:58.705Z,573.69
2023-01-29T02:26:58.697Z,568.78
2023-01-29T02:27:58.709Z,572.21
2023-01-29T02:28:58.676Z,566.36
2023-01-29T02:29:58.670Z,560.15
2023-01-29T02:30:58.662Z,559.68
2023-01-29T02:31:58.671Z,544.98
2023-01-29T02:32:58.862Z,534.89
2023-01-29T02:33:58.625Z,517.80
2023-01-29T02:34:58.624Z,502.52
2023-01-29T02:35:58.620Z,480.01
2023-01-29T02:36:58.589Z,469.49
2023-01-29T02:37:58.599Z,458.16
2023-01-29T02:38:58.592Z,447.06
2023-01-29T02:39:58.568Z,428.88
2023-01-29T02:40:58.597Z,422.87
2023-01-29T02:41:58.563Z,418.35
2023-01-29T02:42:58.635Z,415.21
2023-01-29T02:43:58.543Z,418.61
2023-01-29T02:44:58.521Z,420.73
2023-01-29T02:45:58.634Z,425.04
2023-01-29T02:46:58.544Z,426.95
2023-01-29T02:47:58.515Z,421.00
2023-01-29T02:48:58.503Z,411.10
2023-01-29T02:49:58.464Z,398.28
2023-01-29T02:50:58.463Z,377.60
2023-01-29T02:51:58.474Z,365.36
2023-01-29T02:52:58.442Z,353.89
2023-01-29T02:53:58.440Z,343.84
2023-01-29T02:54:58.461Z,341.68
2023-01-29T02:55:58.417Z,348.23
2023-01-29T02:56:58.414Z,356.59
2023-01-29T02:57:58.407Z,367.41
2023-01-29T02:58:58.417Z,382.46
2023-01-29T02:59:58.407Z,378.47
2023-01-29T03:00:58.460Z,373.71
2023-01-29T03:01:58.394Z,372.43
2023-01-29T03:02:58.410Z,370.75
2023-01-29T03:03:58.341Z,374.57
2023-01-29T03:04:58.366Z,377.60
2023-01-29T03:05:58.329Z,369.91
2023-01-29T03:06:58.393Z,358.55
2023-01-29T03:07:58.433Z,345.65
2023-01-29T03:08:58.304Z,334.00
2023-01-29T03:09:58.288Z,326.01
2023-01-29T03:10:58.302Z,320.89
2023-01-29T03:11:58.270Z,317.46
2023-01-29T03:12:58.263Z,312.00
2023-01-29T03:13:58.235Z,313.50
2023-01-29T03:14:58.356Z,315.62
2023-01-29T03:15:58.232Z,321.20
2023-01-29T03:16:58.238Z,324.39
2023-01-29T03:17:58.400Z,332.30
2023-01-29T03:18:58.195Z,335.03
2023-01-29T03:19:58.212Z,335.03
2023-01-29T03:20:58.331Z,336.06
2023-01-29T03:21:58.159Z,331.29
2023-01-29T03:22:58.165Z,324.71
2023-01-29T03:23:58.370Z,317.46
2023-01-29T03:24:58.131Z,307.89
2023-01-29T03:25:58.132Z,300.53
2023-01-29T03:26:58.109Z,292.20
2023-01-29T03:27:58.110Z,286.57
2023-01-29T03:28:58.109Z,282.11
2023-01-29T03:29:58.119Z,274.99
2023-01-29T03:30:58.101Z,269.11
2023-01-29T03:31:58.147Z,268.01
2023-01-29T03:32:58.105Z,267.13
2023-01-29T03:33:58.053Z,273.16
2023-01-29T03:34:58.098Z,270.67
2023-01-29T03:35:58.049Z,261.36
2023-01-29T03:36:58.029Z,256.85
2023-01-29T03:37:58.092Z,249.78
2023-01-29T03:38:57.999Z,243.82
2023-01-29T03:39:58.024Z,239.00
2023-01-29T03:40:57.995Z,239.71
2023-01-29T03:41:57.987Z,240.94
2023-01-29T03:42:58.012Z,241.48
2023-01-29T03:43:57.978Z,246.95
2023-01-29T03:44:57.940Z,258.88
2023-01-29T03:45:57.958Z,269.33
2023-01-29T03:46:57.922Z,276.16
2023-01-29T03:47:57.935Z,278.75
2023-01-29T03:48:57.972Z,278.04
2023-01-29T03:49:57.920Z,276.39
2023-01-29T03:50:57.893Z,275.92
2023-01-29T03:51:57.897Z,272.25
2023-01-29T03:52:57.880Z,266.69
2023-01-29T03:53:57.872Z,271.34
2023-01-29T03:54:57.872Z,271.79
2023-01-29T03:55:57.905Z,270.89
2023-01-29T03:56:57.860Z,269.55
2023-01-29T03:57:57.824Z,266.26
2023-01-29T03:58:57.837Z,262.62
2023-01-29T03:59:57.817Z,259.91
2023-01-29T04:00:57.835Z,256.04
2023-01-29T04:01:57.800Z,251.12
2023-01-29T04:02:58.044Z,248.83
2023-01-29T04:03:57.899Z,243.27
2023-01-29T04:04:57.790Z,239.18
2023-01-29T04:05:57.766Z,231.39
2023-01-29T04:06:57.741Z,224.87
2023-01-29T04:07:57.724Z,216.81
2023-01-29T04:08:57.782Z,211.07
2023-01-29T04:09:57.734Z,205.37
2023-01-29T04:10:57.701Z,204.09
2023-01-29T04:11:57.690Z,202.07
2023-01-29T04:12:57.704Z,203.07
2023-01-29T04:13:57.719Z,201.20
2023-01-29T04:14:57.665Z,200.58
2023-01-29T04:15:57.684Z,201.07
2023-01-29T04:16:57.651Z,196.48
2023-01-29T04:17:57.635Z,197.07
2023-01-29T04:18:57.672Z,197.91
2023-01-29T04:19:57.656Z,194.15
2023-01-29T04:20:57.611Z,192.55
2023-01-29T04:21:57.646Z,187.47
2023-01-29T04:22:57.584Z,186.19
2023-01-29T04:23:57.608Z,185.66
2023-01-29T04:24:57.584Z,185.45
2023-01-29T04:25:57.574Z,185.34
2023-01-29T04:26:57.566Z,183.30
2023-01-29T04:27:57.607Z,181.69
2023-01-29T04:28:58.418Z,181.10
2023-01-29T04:29:57.521Z,179.54
2023-01-29T04:30:57.646Z,180.71
2023-01-29T04:31:57.613Z,178.96
2023-01-29T04:32:57.551Z,178.57
2023-01-29T04:33:57.488Z,178.57
2023-01-29T04:34:57.491Z,180.90
2023-01-29T04:35:57.493Z,184.11
2023-01-29T04:36:57.481Z,185.13
2023-01-29T04:37:57.465Z,188.33
2023-01-29T04:38:57.454Z,191.31
2023-01-29T04:39:57.496Z,192.55
2023-01-29T04:40:57.441Z,193.57
2023-01-29T04:41:57.426Z,194.61
2023-01-29T04:42:57.393Z,194.15
2023-01-29T04:43:57.417Z,195.66
2023-01-29T04:44:57.367Z,198.03
2023-01-29T04:45:57.408Z,198.03
2023-01-29T04:46:57.360Z,199.97
2023-01-29T04:47:57.368Z,196.01
2023-01-29T04:48:57.354Z,194.26
2023-01-29T04:49:57.343Z,199.11
2023-01-29T04:50:57.339Z,210.12
2023-01-29T04:51:57.342Z,235.22
2023-01-29T04:52:57.353Z,283.83
2023-01-29T04:53:57.306Z,358.55
2023-01-29T04:54:57.378Z,450.70
2023-01-29T04:55:57.275Z,538.80
2023-01-29T04:56:57.266Z,637.56
2023-01-29T04:57:57.274Z,692.02
2023-01-29T04:58:57.446Z,709.00
2023-01-29T04:59:57.313Z,703.00
2023-01-29T05:00:57.219Z,652.59
2023-01-29T05:01:57.431Z,591.04
2023-01-29T05:02:57.227Z,526.83
2023-01-29T05:03:57.209Z,475.20
2023-01-29T05:04:57.382Z,427.77
2023-01-29T05:05:57.195Z,390.10
2023-01-29T05:06:57.177Z,360.92
2023-01-29T05:07:57.263Z,334.34
2023-01-29T05:08:57.200Z,313.80
2023-01-29T05:09:57.145Z,306.45
2023-01-29T05:10:57.147Z,312.30
2023-01-29T05:11:57.119Z,333.32
2023-01-29T05:12:57.125Z,366.18
2023-01-29T05:13:57.098Z,383.34
2023-01-29T05:14:57.097Z,386.47
2023-01-29T05:15:57.283Z,370.33
2023-01-29T05:16:57.085Z,352.74
2023-01-29T05:17:57.072Z,331.63
2023-01-29T05:18:57.082Z,310.23
2023-01-29T05:19:57.044Z,291.42
2023-01-29T05:20:57.051Z,275.46
2023-01-29T05:21:57.071Z,260.95
2023-01-29T05:22:57.025Z,247.32
2023-01-29T05:23:57.069Z,236.75
2023-01-29T05:24:57.025Z,236.58
2023-01-29T05:25:57.002Z,235.39
2023-01-29T05:26:56.974Z,234.21
2023-01-29T05:27:56.980Z,230.41
2023-01-29T05:28:57.005Z,226.42
2023-01-29T05:29:56.941Z,223.18
2023-01-29T05:30:57.014Z,218.99
2023-01-29T05:31:56.944Z,216.96
2023-01-29T05:32:56.947Z,215.10
2023-01-29T05:33:56.915Z,211.76
2023-01-29T05:34:56.967Z,213.97
2023-01-29T05:35:56.936Z,214.53
2023-01-29T05:36:56.898Z,217.10
2023-01-29T05:37:56.885Z,223.18
2023-01-29T05:38:56.933Z,232.38
2023-01-29T05:39:56.904Z,237.10
2023-01-29T05:40:56.849Z,237.79
2023-01-29T05:41:56.867Z,236.07
2023-01-29T05:42:56.832Z,239.00
2023-01-29T05:43:56.810Z,251.90
2023-01-29T05:44:57.310Z,278.98
2023-01-29T05:45:56.807Z,324.07
2023-01-29T05:46:56.910Z,364.95
2023-01-29T05:47:56.806Z,402.14
2023-01-29T05:48:56.766Z,447.06
2023-01-29T05:49:56.850Z,483.86
2023-01-29T05:50:56.779Z,529.35
2023-01-29T05:51:56.791Z,575.18
2023-01-29T05:52:56.722Z,623.20
2023-01-29T05:53:56.768Z,644.99
2023-01-29T05:54:56.712Z,666.33
2023-01-29T05:55:56.705Z,696.37
2023-01-29T05:56:56.711Z,696.37
2023-01-29T05:57:56.677Z,706.74
2023-01-29T05:58:56.666Z,712.04
2023-01-29T05:59:56.688Z,722.10
2023-01-29T06:00:56.671Z,718.98
2023-01-29T06:01:56.739Z,703.00
2023-01-29T06:02:56.728Z,697.10
2023-01-29T06:03:56.651Z,726.05
2023-01-29T06:04:56.637Z,785.12
2023-01-29T06:05:56.614Z,837.53
2023-01-29T06:06:56.604Z,848.76
2023-01-29T06:07:56.636Z,852.02
2023-01-29T06:08:56.595Z,844.44
2023-01-29T06:09:56.586Z,855.30
2023-01-29T06:10:56.614Z,863.08
2023-01-29T06:11:56.548Z,859.73
2023-01-29T06:12:56.539Z,865.89
2023-01-29T06:13:56.611Z,869.85
2023-01-29T06:14:56.530Z,850.38
2023-01-29T06:15:56.590Z,847.67
2023-01-29T06:16:56.500Z,853.66
2023-01-29T06:17:56.511Z,880.21
2023-01-29T06:18:56.488Z,886.08
2023-01-29T06:19:56.498Z,947.29
2023-01-29T06:20:56.470Z,1039.87
2023-01-29T06:21:56.447Z,1095.55
2023-01-29T06:22:56.460Z,1118.59
2023-01-29T06:23:56.513Z,1115.77
2023-01-29T06:24:56.456Z,1076.92
2023-01-29T06:25:56.365Z,1054.72
2023-01-29T06:26:56.478Z,1015.27
2023-01-29T06:27:59.313Z,975.07
2023-01-29T06:28:56.399Z,916.61
2023-01-29T06:29:56.331Z,868.15
2023-01-29T06:30:56.377Z,804.60
2023-01-29T06:31:56.438Z,734.88
2023-01-29T06:32:56.297Z,671.72
2023-01-29T06:33:56.429Z,619.14
2023-01-29T06:34:56.308Z,568.29
2023-01-29T06:35:56.264Z,532.75
2023-01-29T06:36:56.337Z,519.82
2023-01-29T06:37:56.243Z,548.13
2023-01-29T06:38:56.251Z,601.21
2023-01-29T06:39:56.358Z,668.34
2023-01-29T06:40:56.248Z,734.07
2023-01-29T06:41:56.227Z,801.69
2023-01-29T06:42:56.356Z,861.40
2023-01-29T06:43:56.196Z,889.63
2023-01-29T06:44:56.214Z,900.47
2023-01-29T06:45:56.206Z,908.47
2023-01-29T06:46:56.348Z,928.77
2023-01-29T06:47:56.156Z,959.59
2023-01-29T06:48:56.138Z,994.76
2023-01-29T06:49:56.199Z,1020.72
2023-01-29T06:50:56.144Z,1022.29
2023-01-29T06:51:56.110Z,1016.04
2023-01-29T06:52:56.159Z,1008.34
2023-01-29T06:53:56.123Z,991.06
2023-01-29T06:54:56.096Z,966.57
2023-01-29T06:55:56.280Z,970.09
2023-01-29T06:56:56.068Z,987.38
2023-01-29T06:57:56.048Z,1006.81
2023-01-29T06:58:56.443Z,1040.69
2023-01-29T06:59:56.066Z,1063.15
2023-01-29T07:00:56.146Z,1088.38
2023-01-29T07:01:56.065Z,1121.42
2023-01-29T07:02:56.061Z,1153.51
2023-01-29T07:03:56.008Z,1166.67
2023-01-29T07:04:56.014Z,1153.51
2023-01-29T07:05:56.040Z,1142.61
2023-01-29T07:06:55.986Z,1136.75
2023-01-29T07:07:55.955Z,1124.26
2023-01-29T07:08:56.109Z,1114.84
2023-01-29T07:09:55.968Z,1124.26
2023-01-29T07:10:55.932Z,1133.84
2023-01-29T07:11:55.922Z,1112.97
2023-01-29T07:12:55.930Z,1108.33
2023-01-29T07:13:55.897Z,1103.73
2023-01-29T07:14:55.955Z,1078.67
2023-01-29T07:15:55.950Z,1076.05
2023-01-29T07:16:55.889Z,1071.72
2023-01-29T07:17:55.881Z,1092.85
2023-01-29T07:18:55.861Z,1103.73
2023-01-29T07:19:55.880Z,1114.84
2023-01-29T07:20:56.180Z,1128.07
2023-01-29T07:21:56.433Z,1155.52
2023-01-29T07:22:55.826Z,1163.60
2023-01-29T07:23:55.935Z,1171.81
2023-01-29T07:24:55.900Z,1196.04
2023-01-29T07:25:55.796Z,1236.06
2023-01-29T07:26:55.782Z,1260.66
2023-01-29T07:27:55.794Z,1320.75
2023-01-29T07:28:55.781Z,1361.31
2023-01-29T07:29:55.755Z,1351.63
2023-01-29T07:30:55.974Z,1348.88
2023-01-29T07:31:55.843Z,1310.34
2023-01-29T07:32:55.738Z,1275.17
2023-01-29T07:33:55.732Z,1236.06
2023-01-29T07:34:55.728Z,1198.20
2023-01-29T07:35:55.691Z,1164.62
2023-01-29T07:36:55.890Z,1120.47
2023-01-29T07:37:55.826Z,1072.58
2023-01-29T07:38:55.665Z,1078.67
2023-01-29T07:39:55.674Z,1080.42
2023-01-29T07:40:55.660Z,1091.95
2023-01-29T07:41:55.630Z,1114.84
2023-01-29T07:42:55.660Z,1124.26
2023-01-29T07:43:55.735Z,1128.07
2023-01-29T07:44:55.625Z,1114.84
2023-01-29T07:45:55.626Z,1105.57
2023-01-29T07:46:55.610Z,1106.49
2023-01-29T07:47:55.958Z,1103.73
2023-01-29T07:48:56.710Z,1109.26
2023-01-29T07:49:56.013Z,1106.49
2023-01-29T07:50:55.640Z,1114.84
2023-01-29T07:51:55.544Z,1116.71
2023-01-29T07:52:55.547Z,1091.95
2023-01-29T07:53:55.530Z,1083.94
2023-01-29T07:54:55.510Z,1050.55
2023-01-29T07:55:55.511Z,1040.69
2023-01-29T07:56:55.495Z,1055.56
2023-01-29T07:57:55.518Z,1077.80
2023-01-29T07:58:55.483Z,1100.08
2023-01-29T07:59:55.464Z,1117.65
2023-01-29T08:00:55.494Z,1120.47
2023-01-29T08:01:55.465Z,1094.65
2023-01-29T08:02:55.465Z,1064.00
2023-01-29T08:03:55.445Z,1064.00
2023-01-29T08:04:55.412Z,1048.90
2023-01-29T08:05:55.429Z,1082.18
2023-01-29T08:06:55.539Z,1070.85
2023-01-29T08:08:06.098Z,1063.15
2023-01-29T08:08:55.404Z,1027.03
2023-01-29T08:09:55.367Z,989.58
2023-01-29T08:10:55.363Z,987.38
2023-01-29T08:11:55.393Z,984.46
2023-01-29T08:12:55.369Z,980.83
2023-01-29T08:13:55.335Z,969.39
2023-01-29T08:14:55.339Z,946.62
2023-01-29T08:15:55.308Z,933.33
2023-01-29T08:16:55.329Z,912.83
2023-01-29T08:17:58.038Z,883.72
2023-01-29T08:18:55.296Z,870.99
2023-01-29T08:19:55.271Z,898.65
2023-01-29T08:20:55.274Z,895.02
2023-01-29T08:21:55.366Z,908.47
2023-01-29T08:22:55.243Z,919.78
2023-01-29T08:23:55.301Z,907.23
2023-01-29T08:25:06.487Z,937.28
2023-01-29T08:25:55.244Z,946.62
2023-01-29T08:26:55.210Z,973.65
2023-01-29T08:27:55.208Z,1029.41
2023-01-29T08:28:55.203Z,1069.99
2023-01-29T08:29:55.181Z,1087.49
2023-01-29T08:30:55.286Z,1058.92
2023-01-29T08:31:55.435Z,1038.25
2023-01-29T08:32:55.168Z,1048.07
2023-01-29T08:33:55.160Z,1059.76
2023-01-29T08:34:55.129Z,1070.85
2023-01-29T08:35:55.145Z,1067.42
2023-01-29T08:36:55.112Z,1090.16
2023-01-29T08:37:55.154Z,1129.99
2023-01-29T08:38:55.095Z,1148.53
2023-01-29T08:39:55.095Z,1166.67
2023-01-29T08:40:55.103Z,1183.27
2023-01-29T08:41:55.078Z,1189.62
2023-01-29T08:42:55.060Z,1188.56
2023-01-29T08:43:55.072Z,1146.55
2023-01-29T08:44:55.042Z,1146.55
2023-01-29T08:45:55.091Z,1133.84
2023-01-29T08:46:55.159Z,1135.78
2023-01-29T08:47:54.999Z,1130.95
2023-01-29T08:48:55.062Z,1122.36
2023-01-29T08:49:54.999Z,1109.26
2023-01-29T08:50:54.978Z,1103.73
2023-01-29T08:51:55.003Z,1112.97
2023-01-29T08:52:55.004Z,1103.73
2023-01-29T08:53:54.955Z,1076.05
2023-01-29T08:54:54.945Z,1039.06
2023-01-29T08:55:54.984Z,1022.29
2023-01-29T08:56:54.947Z,1025.44
2023-01-29T08:57:55.838Z,1052.21
2023-01-29T08:58:54.900Z,1039.06
2023-01-29T08:59:55.753Z,1006.05
2023-01-29T09:00:54.952Z,1017.60
2023-01-29T09:01:54.878Z,943.93
2023-01-29T09:02:54.874Z,907.23
2023-01-29T09:03:54.861Z,887.26
2023-01-29T09:04:54.844Z,890.23
2023-01-29T09:05:55.142Z,884.31
2023-01-29T09:06:54.840Z,876.15
2023-01-29T09:07:54.844Z,864.20
2023-01-29T09:08:54.968Z,846.59
2023-01-29T09:09:55.103Z,846.06
2023-01-29T09:10:54.806Z,839.12
2023-01-29T09:11:54.829Z,853.11
2023-01-29T09:12:54.803Z,866.45
2023-01-29T09:13:55.036Z,880.79
2023-01-29T09:14:54.756Z,852.02
2023-01-29T09:15:54.745Z,826.09
2023-01-29T09:16:54.820Z,815.45
2023-01-29T09:17:55.039Z,810.48
2023-01-29T09:18:54.734Z,797.84
2023-01-29T09:19:54.733Z,786.98
2023-01-29T09:20:55.051Z,776.41
2023-01-29T09:21:54.833Z,760.00
2023-01-29T09:22:54.864Z,773.71
2023-01-29T09:23:54.808Z,802.17
2023-01-29T09:24:53.663Z,855.30
2023-01-29T09:25:54.646Z,934.65
2023-01-29T09:26:54.645Z,974.36
2023-01-29T09:27:54.647Z,988.11
2023-01-29T09:28:54.620Z,987.38
2023-01-29T09:29:54.618Z,997.00
2023-01-29T09:30:54.745Z,991.80
2023-01-29T09:31:55.499Z,961.68
2023-01-29T09:32:55.134Z,887.26
2023-01-29T09:33:54.579Z,834.38
2023-01-29T09:34:54.570Z,799.28
2023-01-29T09:35:56.838Z,757.83
2023-01-29T09:36:54.651Z,703.00
2023-01-29T09:37:54.581Z,682.77
2023-01-29T09:38:54.522Z,673.77
2023-01-29T09:39:54.499Z,678.59
2023-01-29T09:40:54.510Z,687.72
2023-01-29T09:41:54.561Z,698.57
2023-01-29T09:42:54.496Z,758.70
2023-01-29T09:43:54.462Z,783.74
2023-01-29T09:44:56.695Z,788.85
2023-01-29T09:45:54.569Z,789.79
2023-01-29T09:46:54.570Z,755.25
2023-01-29T09:47:54.462Z,726.84
2023-01-29T09:48:54.751Z,749.72
2023-01-29T09:49:54.449Z,765.25
2023-01-29T09:50:54.491Z,712.04
2023-01-29T09:51:54.645Z,666.33
2023-01-29T09:52:54.602Z,650.03
2023-01-29T09:53:54.427Z,679.97
2023-01-29T09:54:54.383Z,709.00
2023-01-29T09:55:54.383Z,726.84
2023-01-29T09:56:55.337Z,726.84
2023-01-29T09:57:54.339Z,768.79
2023-01-29T09:58:55.721Z,800.72
2023-01-29T09:59:54.319Z,846.06
2023-01-29T10:00:54.317Z,880.21
2023-01-29T10:01:54.535Z,904.76
2023-01-29T10:02:54.583Z,919.78
2023-01-29T10:03:54.336Z,914.72
2023-01-29T10:04:54.342Z,863.64
2023-01-29T10:05:55.107Z,849.84
2023-01-29T10:06:55.255Z,864.20
2023-01-29T10:07:54.528Z,912.83
2023-01-29T10:08:55.036Z,967.98
2023-01-29T10:09:54.273Z,1031.01
2023-01-29T10:10:54.254Z,1023.86
2023-01-29T10:11:56.311Z,1038.25
2023-01-29T10:12:55.057Z,1057.23
2023-01-29T10:13:54.223Z,1058.92
2023-01-29T10:14:54.537Z,1046.42
2023-01-29T10:15:54.154Z,1019.16
2023-01-29T10:16:54.172Z,971.51
2023-01-29T10:17:54.519Z,992.54
2023-01-29T10:18:54.138Z,1045.60
2023-01-29T10:19:54.141Z,1056.39
2023-01-29T10:20:55.664Z,1084.83
2023-01-29T10:21:55.754Z,1145.56
2023-01-29T10:22:54.231Z,1188.56
2023-01-29T10:23:54.990Z,1226.94
2023-01-29T10:24:54.082Z,1189.62
2023-01-29T10:25:54.053Z,1137.72
2023-01-29T10:26:54.074Z,1178.03
2023-01-29T10:27:54.072Z,1222.43
2023-01-29T10:28:54.045Z,1231.48
2023-01-29T10:29:54.019Z,1229.20
2023-01-29T10:30:56.372Z,1234.91
2023-01-29T10:31:54.182Z,1185.38
2023-01-29T10:32:53.993Z,1116.71
2023-01-29T10:34:02.148Z,1055.56
2023-01-29T10:34:53.990Z,958.90
2023-01-29T10:35:55.801Z,924.90
2023-01-29T10:36:53.968Z,890.82
2023-01-29T10:37:53.952Z,892.62
2023-01-29T10:38:53.971Z,907.23
2023-01-29T10:39:53.925Z,943.93
2023-01-29T10:40:53.953Z,979.38
2023-01-29T10:41:54.095Z,1020.72
2023-01-29T10:42:53.905Z,1102.82
2023-01-29T10:43:53.968Z,1180.12
2023-01-29T10:44:53.888Z,1221.30
2023-01-29T10:45:53.877Z,1250.00
2023-01-29T10:46:53.904Z,1290.01
2023-01-29T10:47:53.899Z,1354.38
2023-01-29T10:48:54.098Z,1378.24
2023-01-29T10:49:53.828Z,1407.41
2023-01-29T10:50:53.850Z,1518.27
2023-01-29T10:51:53.882Z,1573.96
2023-01-29T10:52:55.933Z,1594.72
2023-01-29T10:53:53.894Z,1650.12
2023-01-29T10:54:54.479Z,1752.31
2023-01-29T10:55:53.791Z,1774.52
2023-01-29T10:56:54.567Z,1744.26
2023-01-29T10:57:53.763Z,1693.19
2023-01-29T10:58:54.344Z,1662.50
2023-01-29T10:59:53.865Z,1671.90
2023-01-29T11:00:54.199Z,1659.39
2023-01-29T11:01:53.778Z,1710.61
2023-01-29T11:02:53.967Z,1737.43
2023-01-29T11:03:53.689Z,1700.77
2023-01-29T11:04:53.716Z,1651.15
2023-01-29T11:05:53.689Z,1587.11
2023-01-29T11:06:53.712Z,1565.63
2023-01-29T11:07:53.999Z,1505.38
2023-01-29T11:08:53.706Z,1504.53
2023-01-29T11:09:53.652Z,1433.19
2023-01-29T11:10:53.618Z,1414.89
2023-01-29T11:11:53.636Z,1388.31
2023-01-29T11:12:53.613Z,1271.51
2023-01-29T11:13:53.819Z,1223.55
2023-01-29T11:14:53.647Z,1238.36
2023-01-29T11:15:54.233Z,1296.30
2023-01-29T11:16:54.545Z,1342.08
2023-01-29T11:17:53.973Z,1355.76
2023-01-29T11:18:53.864Z,1366.91
2023-01-29T11:19:53.558Z,1425.51
2023-01-29T11:20:53.596Z,1391.21
2023-01-29T11:21:53.657Z,1358.53
2023-01-29T11:22:53.503Z,1375.39
2023-01-29T11:23:53.533Z,1336.68
2023-01-29T11:24:54.363Z,1320.75
2023-01-29T11:25:53.767Z,1292.52
2023-01-29T11:26:53.536Z,1319.44
2023-01-29T11:27:53.812Z,1359.92
2023-01-29T11:28:53.693Z,1368.31
2023-01-29T11:29:53.474Z,1339.38
2023-01-29T11:30:53.676Z,1324.70
2023-01-29T11:31:53.574Z,1323.38
2023-01-29T11:32:53.488Z,1334.00
2023-01-29T11:33:53.395Z,1391.21
2023-01-29T11:34:53.396Z,1455.14
2023-01-29T11:35:53.384Z,1516.53
2023-01-29T11:36:53.435Z,1459.93
2023-01-29T11:37:53.561Z,1486.03
2023-01-29T11:38:53.364Z,1545.61
2023-01-29T11:39:53.341Z,1591.86
2023-01-29T11:40:53.718Z,1499.44
2023-01-29T11:41:53.373Z,1459.93
2023-01-29T11:42:53.400Z,1440.95
2023-01-29T11:43:53.309Z,1427.04
2023-01-29T11:44:54.734Z,1509.65
2023-01-29T11:45:54.350Z,1537.57
2023-01-29T11:46:53.502Z,1541.14
2023-01-29T11:47:53.608Z,1529.61
2023-01-29T11:48:54.811Z,1618.01
2023-01-29T11:49:53.284Z,1659.39
2023-01-29T11:50:53.516Z,1624.92
2023-01-29T11:51:53.221Z,1574.90
2023-01-29T11:52:53.210Z,1543.82
2023-01-29T11:53:53.313Z,1523.48
2023-01-29T11:54:53.283Z,1580.51
2023-01-29T11:55:53.881Z,1630.90
2023-01-29T11:56:53.261Z,1635.92
2023-01-29T11:57:55.097Z,1633.91
2023-01-29T11:58:53.456Z,1676.12
2023-01-29T11:59:53.159Z,1653.20
2023-01-29T12:00:53.344Z,1599.52
2023-01-29T12:01:54.003Z,1550.12
2023-01-29T12:02:53.896Z,1624.92
2023-01-29T12:03:53.341Z,1730.64
2023-01-29T12:04:53.208Z,1715.02
2023-01-29T12:05:53.419Z,1668.76
2023-01-29T12:06:53.321Z,1706.22
2023-01-29T12:07:53.407Z,1752.31
2023-01-29T12:08:53.132Z,1727.27
2023-01-29T12:09:53.987Z,1677.18
2023-01-29T12:10:54.160Z,1674.01
2023-01-29T12:11:53.036Z,1659.39
2023-01-29T12:12:53.208Z,1625.92
2023-01-29T12:13:53.037Z,1600.48
2023-01-29T12:14:52.998Z,1627.91
2023-01-29T12:15:54.813Z,1638.94
2023-01-29T12:16:53.024Z,1711.71
2023-01-29T12:17:52.965Z,1610.17
2023-01-29T12:18:53.585Z,1520.00
2023-01-29T12:19:53.931Z,1492.70
2023-01-29T12:20:52.979Z,1447.22
2023-01-29T12:21:53.007Z,1464.76